createdAt,value
2023-05-16T00:02:11.116Z,20.60
2023-05-16T00:04:39.088Z,18.70
2023-05-16T00:07:06.727Z,19.30
2023-05-16T00:09:34.353Z,17.60
2023-05-16T00:12:01.970Z,17.40
2023-05-16T00:14:29.799Z,17.70
2023-05-16T00:17:01.124Z,16.60
2023-05-16T00:19:29.948Z,17.10
2023-05-16T00:21:57.727Z,17.90
2023-05-16T00:24:25.775Z,17.20
2023-05-16T00:26:53.329Z,15.80
2023-05-16T00:29:24.279Z,16.40
2023-05-16T00:31:51.953Z,16.30
2023-05-16T00:34:21.307Z,16.50
2023-05-16T00:36:52.055Z,17.00
2023-05-16T00:39:19.661Z,17.30
2023-05-16T00:41:47.313Z,17.10
2023-05-16T00:44:14.881Z,17.00
2023-05-16T00:46:44.110Z,18.10
2023-05-16T00:49:12.974Z,19.80
2023-05-16T00:51:40.861Z,21.10
2023-05-16T00:54:08.479Z,24.80
2023-05-16T00:56:36.997Z,25.00
2023-05-16T00:59:04.603Z,25.40
2023-05-16T01:01:32.989Z,25.20
2023-05-16T01:04:01.332Z,25.10
2023-05-16T01:06:29.116Z,25.10
2023-05-16T01:08:57.098Z,24.80
2023-05-16T01:11:36.396Z,25.60
2023-05-16T01:14:22.327Z,25.10
2023-05-16T01:17:03.354Z,23.70
2023-05-16T01:20:15.313Z,25.00
2023-05-16T01:22:49.047Z,24.30
2023-05-16T01:25:45.635Z,23.30
2023-05-16T01:28:16.377Z,22.90
2023-05-16T01:30:44.794Z,21.50
2023-05-16T01:33:12.526Z,22.20
2023-05-16T01:35:44.829Z,21.20
2023-05-16T01:38:21.349Z,20.40
2023-05-16T01:41:10.751Z,20.40
2023-05-16T01:43:43.532Z,20.10
2023-05-16T01:46:14.345Z,20.50
2023-05-16T01:48:53.447Z,21.80
2023-05-16T01:51:28.328Z,21.10
2023-05-16T01:53:59.089Z,22.40
2023-05-16T01:56:29.666Z,22.00
2023-05-16T01:58:58.044Z,22.00
2023-05-16T02:01:25.708Z,22.20
2023-05-16T02:03:53.374Z,23.60
2023-05-16T02:06:22.221Z,22.30
2023-05-16T02:08:50.090Z,24.40
2023-05-16T02:11:19.044Z,23.80
2023-05-16T02:13:46.693Z,24.40
2023-05-16T02:16:14.370Z,25.30
2023-05-16T02:18:42.622Z,24.80
2023-05-16T02:21:10.645Z,24.90
2023-05-16T02:23:38.292Z,24.70
2023-05-16T02:26:06.462Z,24.80
2023-05-16T02:28:34.191Z,25.40
2023-05-16T02:31:02.173Z,25.10
2023-05-16T02:33:30.521Z,25.00
2023-05-16T02:35:58.281Z,25.50
2023-05-16T02:38:27.394Z,24.10
2023-05-16T02:40:56.627Z,24.80
2023-05-16T02:43:24.236Z,24.20
2023-05-16T02:45:53.164Z,24.00
2023-05-16T02:48:21.015Z,24.50
2023-05-16T02:50:48.719Z,24.80
2023-05-16T02:53:16.322Z,24.20
2023-05-16T02:55:43.891Z,25.30
2023-05-16T02:58:11.477Z,25.80
2023-05-16T03:00:39.109Z,25.60
2023-05-16T03:03:06.726Z,27.30
2023-05-16T03:05:34.709Z,26.50
2023-05-16T03:08:02.539Z,26.90
2023-05-16T03:10:30.211Z,26.70
2023-05-16T03:12:57.920Z,25.90
2023-05-16T03:15:26.010Z,25.40
2023-05-16T03:17:53.910Z,25.30
2023-05-16T03:20:22.663Z,25.30
2023-05-16T03:22:51.198Z,25.90
2023-05-16T03:25:18.809Z,24.80
2023-05-16T03:27:46.397Z,24.70
2023-05-16T03:30:14.522Z,25.00
2023-05-16T03:32:42.198Z,24.90
2023-05-16T03:35:09.824Z,24.90
2023-05-16T03:37:38.550Z,24.10
2023-05-16T03:40:07.339Z,23.70
2023-05-16T03:42:35.139Z,23.70
2023-05-16T03:45:05.356Z,23.70
2023-05-16T03:47:33.059Z,23.20
2023-05-16T03:50:00.763Z,22.70
2023-05-16T03:52:28.748Z,22.70
2023-05-16T03:54:57.029Z,24.00
2023-05-16T03:57:24.642Z,22.90
2023-05-16T03:59:52.234Z,23.00
2023-05-16T04:02:20.021Z,22.50
2023-05-16T04:04:48.195Z,22.60
2023-05-16T04:07:15.830Z,23.20
2023-05-16T04:09:43.758Z,21.00
2023-05-16T04:12:11.353Z,22.10
2023-05-16T04:14:39.265Z,20.90
2023-05-16T04:17:06.970Z,21.00
2023-05-16T04:19:34.742Z,20.20
2023-05-16T04:22:02.305Z,20.20
2023-05-16T04:24:29.966Z,20.60
2023-05-16T04:26:57.570Z,21.40
2023-05-16T04:29:25.886Z,20.40
2023-05-16T04:31:53.663Z,21.50
2023-05-16T04:34:23.176Z,20.90
2023-05-16T04:36:50.816Z,21.40
2023-05-16T04:39:18.388Z,22.00
2023-05-16T04:41:46.256Z,21.70
2023-05-16T04:44:14.429Z,21.10
2023-05-16T04:46:42.194Z,20.70
2023-05-16T04:49:11.302Z,21.10
2023-05-16T04:51:38.865Z,20.70
2023-05-16T04:54:06.435Z,22.40
2023-05-16T04:56:34.171Z,21.80
2023-05-16T04:59:02.573Z,22.00
2023-05-16T05:01:30.480Z,21.30
2023-05-16T05:03:58.332Z,21.10
2023-05-16T05:06:26.208Z,21.40
2023-05-16T05:08:54.979Z,21.40
2023-05-16T05:11:23.261Z,22.30
2023-05-16T05:13:52.976Z,21.00
2023-05-16T05:16:20.959Z,21.30
2023-05-16T05:18:48.624Z,21.00
2023-05-16T05:21:16.300Z,21.40
2023-05-16T05:23:43.960Z,21.10
2023-05-16T05:26:12.128Z,20.20
2023-05-16T05:29:03.961Z,20.90
2023-05-16T05:31:35.363Z,20.20
2023-05-16T05:34:03.541Z,20.40
2023-05-16T05:36:31.666Z,20.30
2023-05-16T05:38:59.268Z,20.70
2023-05-16T05:41:27.177Z,20.00
2023-05-16T05:43:54.814Z,20.60
2023-05-16T05:46:22.492Z,20.40
2023-05-16T05:48:50.530Z,21.20
2023-05-16T05:51:18.276Z,20.80
2023-05-16T05:53:45.932Z,21.50
2023-05-16T05:56:13.605Z,20.50
2023-05-16T05:58:42.166Z,23.00
2023-05-16T06:01:12.911Z,21.50
2023-05-16T06:03:40.947Z,21.80
2023-05-16T06:06:09.558Z,22.40
2023-05-16T06:08:37.205Z,21.60
2023-05-16T06:11:04.832Z,22.30
2023-05-16T06:13:32.437Z,21.60
2023-05-16T06:16:00.163Z,22.50
2023-05-16T06:18:27.787Z,23.10
2023-05-16T06:20:55.342Z,22.20
2023-05-16T06:23:22.953Z,22.20
2023-05-16T06:25:50.909Z,20.70
2023-05-16T06:28:18.777Z,20.20
2023-05-16T06:30:47.992Z,21.30
2023-05-16T06:33:15.952Z,21.40
2023-05-16T06:35:43.629Z,19.60
2023-05-16T06:38:11.224Z,21.70
2023-05-16T06:40:38.843Z,20.60
2023-05-16T06:43:06.862Z,20.80
2023-05-16T06:45:34.467Z,19.40
2023-05-16T06:48:02.218Z,21.50
2023-05-16T06:50:30.205Z,21.30
2023-05-16T06:52:57.902Z,20.10
2023-05-16T06:55:25.726Z,19.80
2023-05-16T06:57:53.629Z,16.90
2023-05-16T07:00:21.930Z,14.50
2023-05-16T07:02:50.473Z,13.20
2023-05-16T07:05:18.567Z,13.10
2023-05-16T07:07:46.592Z,12.30
2023-05-16T07:10:14.213Z,12.20
2023-05-16T07:12:42.977Z,10.60
2023-05-16T07:15:10.922Z,10.60
2023-05-16T07:17:38.865Z,10.30
2023-05-16T07:20:08.200Z,9.70
2023-05-16T07:22:36.289Z,9.80
2023-05-16T07:25:04.568Z,10.50
2023-05-16T07:27:32.287Z,10.00
2023-05-16T07:29:59.902Z,8.50
2023-05-16T07:32:27.561Z,8.40
2023-05-16T07:34:55.204Z,7.30
2023-05-16T07:37:23.096Z,5.90
2023-05-16T07:39:50.969Z,5.80
2023-05-16T07:42:18.618Z,5.60
2023-05-16T07:44:46.616Z,5.60
2023-05-16T07:47:14.270Z,5.10
2023-05-16T07:49:42.042Z,5.10
2023-05-16T07:52:09.730Z,4.90
2023-05-16T07:54:38.076Z,5.40
2023-05-16T07:57:06.160Z,5.30
2023-05-16T07:59:33.914Z,4.80
2023-05-16T08:02:01.603Z,4.00
2023-05-16T08:04:29.244Z,3.70
2023-05-16T08:06:56.969Z,4.10
2023-05-16T08:09:24.596Z,4.50
2023-05-16T08:11:52.207Z,4.40
2023-05-16T08:14:19.850Z,4.20
2023-05-16T08:16:47.596Z,3.70
2023-05-16T08:19:15.412Z,3.60
2023-05-16T08:21:43.072Z,3.20
2023-05-16T08:24:11.958Z,3.50
2023-05-16T08:26:39.652Z,3.70
2023-05-16T08:29:07.277Z,3.70
2023-05-16T08:31:34.991Z,3.90
2023-05-16T08:34:02.836Z,4.10
2023-05-16T08:36:31.682Z,3.90
2023-05-16T08:38:59.290Z,3.60
2023-05-16T08:41:26.984Z,3.30
2023-05-16T08:43:54.624Z,4.20
2023-05-16T08:46:23.941Z,3.40
2023-05-16T08:48:52.982Z,3.20
2023-05-16T08:51:21.432Z,3.00
2023-05-16T08:54:06.788Z,3.00
2023-05-16T08:56:35.650Z,3.30
2023-05-16T08:59:03.298Z,3.10
2023-05-16T09:01:34.456Z,3.30
2023-05-16T09:04:03.968Z,3.50
2023-05-16T09:06:31.683Z,3.70
2023-05-16T09:08:59.326Z,3.50
2023-05-16T09:11:26.985Z,2.70
2023-05-16T09:13:54.679Z,3.30
2023-05-16T09:16:22.317Z,2.90
2023-05-16T09:18:56.972Z,3.20
2023-05-16T09:21:28.325Z,3.40
2023-05-16T09:23:56.179Z,2.90
2023-05-16T09:26:24.307Z,2.90
2023-05-16T09:28:55.135Z,2.90
2023-05-16T09:31:26.690Z,2.70
2023-05-16T09:33:56.526Z,3.00
2023-05-16T09:36:25.054Z,2.80
2023-05-16T09:38:53.408Z,2.40
2023-05-16T09:41:22.147Z,2.50
2023-05-16T09:43:49.851Z,2.20
2023-05-16T09:46:17.646Z,2.10
2023-05-16T09:48:46.914Z,2.30
2023-05-16T09:51:15.305Z,2.40
2023-05-16T09:53:43.556Z,3.20
2023-05-16T09:56:13.728Z,2.60
2023-05-16T09:58:43.485Z,2.50
2023-05-16T10:01:11.902Z,2.70
2023-05-16T10:03:41.167Z,2.70
2023-05-16T10:06:09.593Z,2.60
2023-05-16T10:08:37.473Z,2.60
2023-05-16T10:11:06.501Z,2.40
2023-05-16T10:13:35.861Z,2.70
2023-05-16T10:16:11.998Z,2.70
2023-05-16T10:18:40.930Z,2.70
2023-05-16T10:21:12.050Z,2.90
2023-05-16T10:23:42.838Z,2.90
2023-05-16T10:26:14.204Z,2.60
2023-05-16T10:28:42.281Z,2.70
2023-05-16T10:31:11.063Z,3.00
2023-05-16T10:33:39.755Z,3.00
2023-05-16T10:36:11.033Z,3.40
2023-05-16T10:38:39.202Z,3.50
2023-05-16T10:41:07.702Z,3.00
2023-05-16T10:43:35.526Z,3.40
2023-05-16T10:46:05.398Z,3.10
2023-05-16T10:48:36.356Z,3.20
2023-05-16T10:51:25.793Z,3.20
2023-05-16T10:53:54.877Z,3.30
2023-05-16T10:56:27.256Z,3.30
2023-05-16T10:58:56.277Z,3.30
2023-05-16T11:01:32.718Z,3.20
2023-05-16T11:04:04.936Z,3.40
2023-05-16T11:06:41.643Z,3.10
2023-05-16T11:09:13.449Z,3.20
2023-05-16T11:11:49.347Z,3.30
2023-05-16T11:14:43.642Z,3.20
2023-05-16T11:17:22.269Z,3.90
2023-05-16T11:19:51.807Z,3.30
2023-05-16T11:22:19.433Z,3.20
2023-05-16T11:25:09.364Z,3.20
2023-05-16T11:27:43.425Z,3.30
2023-05-16T11:30:16.164Z,3.30
2023-05-16T11:32:45.530Z,3.20
2023-05-16T11:35:15.432Z,4.10
2023-05-16T11:37:44.998Z,3.40
2023-05-16T11:40:13.680Z,3.70
2023-05-16T11:42:48.037Z,3.30
2023-05-16T11:45:17.364Z,3.50
2023-05-16T11:47:48.204Z,3.70
2023-05-16T11:50:18.479Z,3.40
2023-05-16T11:52:53.747Z,3.50
2023-05-16T11:55:40.284Z,3.20
2023-05-16T11:58:09.481Z,3.00
2023-05-16T12:00:37.305Z,3.20
2023-05-16T12:03:05.611Z,3.90
2023-05-16T12:05:35.280Z,3.60
2023-05-16T12:08:05.636Z,3.60
2023-05-16T12:10:34.940Z,3.20
2023-05-16T12:13:03.461Z,3.30
2023-05-16T12:15:31.692Z,3.30
2023-05-16T12:17:59.559Z,3.10
2023-05-16T12:20:27.624Z,3.30
2023-05-16T12:22:58.191Z,3.40
2023-05-16T12:25:32.389Z,2.90
2023-05-16T12:28:02.110Z,3.90
2023-05-16T12:30:31.734Z,3.30
2023-05-16T12:33:08.020Z,3.60
2023-05-16T12:35:39.052Z,3.60
2023-05-16T12:38:08.582Z,3.90
2023-05-16T12:40:38.112Z,3.30
2023-05-16T12:43:14.283Z,3.10
2023-05-16T12:45:43.244Z,3.20
2023-05-16T12:48:16.977Z,3.80
2023-05-16T12:50:46.531Z,3.20
2023-05-16T12:53:15.790Z,3.40
2023-05-16T12:55:44.303Z,3.40
2023-05-16T12:58:12.344Z,3.20
2023-05-16T13:00:40.258Z,3.60
2023-05-16T13:03:08.337Z,3.40
2023-05-16T13:05:36.656Z,3.30
2023-05-16T13:08:04.812Z,3.70
2023-05-16T13:10:32.501Z,3.70
2023-05-16T13:13:00.501Z,3.70
2023-05-16T13:15:28.760Z,3.30
2023-05-16T13:17:56.774Z,3.70
2023-05-16T13:20:24.788Z,3.80
2023-05-16T13:22:52.573Z,3.70
2023-05-16T13:25:20.321Z,3.60
2023-05-16T13:27:49.437Z,4.00
2023-05-16T13:30:17.216Z,3.90
2023-05-16T13:32:44.910Z,3.90
2023-05-16T13:35:13.421Z,3.90
2023-05-16T13:37:41.542Z,3.50
2023-05-16T13:40:10.611Z,3.50
2023-05-16T13:42:38.726Z,3.80
2023-05-16T13:45:07.162Z,4.00
2023-05-16T13:47:34.854Z,3.70
2023-05-16T13:50:05.996Z,3.90
2023-05-16T13:52:35.007Z,3.90
2023-05-16T13:55:04.026Z,3.80
2023-05-16T13:57:32.956Z,3.70
2023-05-16T14:00:24.999Z,3.70
2023-05-16T14:02:48.600Z,3.80
2023-05-16T14:05:16.527Z,3.90
2023-05-16T14:07:46.684Z,3.90
2023-05-16T14:10:14.688Z,3.60
2023-05-16T14:12:42.595Z,4.70
2023-05-16T14:15:10.484Z,4.20
2023-05-16T14:17:38.230Z,3.80
2023-05-16T14:20:09.685Z,3.70
2023-05-16T14:22:38.379Z,4.00
2023-05-16T14:25:07.148Z,4.10
2023-05-16T14:27:34.899Z,3.70
2023-05-16T14:30:02.607Z,4.90
2023-05-16T14:32:30.541Z,3.90
2023-05-16T14:34:58.259Z,3.80
2023-05-16T14:37:25.971Z,3.50
2023-05-16T14:39:54.405Z,3.80
2023-05-16T14:42:22.052Z,3.60
2023-05-16T14:44:49.735Z,4.20
2023-05-16T14:47:17.757Z,3.80
2023-05-16T14:49:45.402Z,4.10
2023-05-16T14:52:13.076Z,3.70
2023-05-16T14:54:40.738Z,4.00
2023-05-16T14:57:08.444Z,4.00
2023-05-16T14:59:36.642Z,4.00
2023-05-16T15:02:04.614Z,3.90
2023-05-16T15:04:33.015Z,6.80
2023-05-16T15:07:00.982Z,4.30
2023-05-16T15:09:28.657Z,4.30
2023-05-16T15:11:56.336Z,4.10
2023-05-16T15:14:24.152Z,4.00
2023-05-16T15:16:52.312Z,4.70
2023-05-16T15:19:19.980Z,5.00
2023-05-16T15:21:47.664Z,4.00
2023-05-16T15:24:15.696Z,4.40
2023-05-16T15:26:43.452Z,4.10
2023-05-16T15:29:11.611Z,4.00
2023-05-16T15:31:39.287Z,4.20
2023-05-16T15:34:08.621Z,4.50
2023-05-16T15:36:36.295Z,4.40
2023-05-16T15:39:04.135Z,4.20
2023-05-16T15:41:50.083Z,4.30
2023-05-16T15:44:19.609Z,4.60
2023-05-16T15:46:47.375Z,4.40
2023-05-16T15:49:15.091Z,4.00
2023-05-16T15:51:42.737Z,4.80
2023-05-16T15:54:10.402Z,4.80
2023-05-16T15:56:38.064Z,4.40
2023-05-16T15:59:05.737Z,4.50
2023-05-16T16:01:33.454Z,5.10
2023-05-16T16:04:01.210Z,4.90
2023-05-16T16:06:28.895Z,4.60
2023-05-16T16:08:56.522Z,4.30
2023-05-16T16:11:26.127Z,4.60
2023-05-16T16:13:53.794Z,7.20
2023-05-16T16:16:21.670Z,5.00
2023-05-16T16:18:50.249Z,5.50
2023-05-16T16:21:18.193Z,5.10
2023-05-16T16:23:45.838Z,5.20
2023-05-16T16:26:13.514Z,5.00
2023-05-16T16:28:41.316Z,5.00
2023-05-16T16:31:09.044Z,5.90
2023-05-16T16:33:36.818Z,4.40
2023-05-16T16:36:04.818Z,4.80
2023-05-16T16:38:33.077Z,5.70
2023-05-16T16:41:00.950Z,6.30
2023-05-16T16:43:28.582Z,5.90
2023-05-16T16:45:56.237Z,5.00
2023-05-16T16:48:24.000Z,4.30
2023-05-16T16:50:52.237Z,7.20
2023-05-16T16:53:19.900Z,4.40
2023-05-16T16:55:47.531Z,6.30
2023-05-16T16:58:15.179Z,7.30
2023-05-16T17:00:43.311Z,8.50
2023-05-16T17:03:11.752Z,8.40
2023-05-16T17:05:39.422Z,12.40
2023-05-16T17:08:07.027Z,21.30
2023-05-16T17:10:34.691Z,11.10
2023-05-16T17:13:07.216Z,5.60
2023-05-16T17:15:35.015Z,6.30
2023-05-16T17:18:06.433Z,5.60
2023-05-16T17:20:34.916Z,6.30
2023-05-16T17:23:04.258Z,6.00
2023-05-16T17:25:32.405Z,5.10
2023-05-16T17:28:00.060Z,6.30
2023-05-16T17:30:27.719Z,6.20
2023-05-16T17:32:55.444Z,5.50
2023-05-16T17:35:23.142Z,5.50
2023-05-16T17:37:51.506Z,5.50
2023-05-16T17:40:19.161Z,5.70
2023-05-16T17:42:46.873Z,5.60
2023-05-16T17:45:16.184Z,6.60
2023-05-16T17:47:44.028Z,6.40
2023-05-16T17:50:12.055Z,5.90
2023-05-16T17:52:40.623Z,6.40
2023-05-16T17:55:09.194Z,8.10
2023-05-16T17:57:36.850Z,7.30
2023-05-16T18:00:05.722Z,7.30
2023-05-16T18:02:34.246Z,7.50
2023-05-16T18:05:03.321Z,7.40
2023-05-16T18:07:31.008Z,7.70
2023-05-16T18:09:59.040Z,9.60
2023-05-16T18:12:26.936Z,9.50
2023-05-16T18:14:54.635Z,7.70
2023-05-16T18:17:22.680Z,7.20
2023-05-16T18:19:50.940Z,7.20
2023-05-16T18:22:18.801Z,7.70
2023-05-16T18:24:46.517Z,19.90
2023-05-16T18:27:14.327Z,23.80
2023-05-16T18:29:42.310Z,37.20
2023-05-16T18:32:09.942Z,65.30
2023-05-16T18:34:37.560Z,26.00
2023-05-16T18:37:06.636Z,13.90
2023-05-16T18:39:34.343Z,24.60
2023-05-16T18:42:02.037Z,63.70
2023-05-16T18:44:29.733Z,23.00
2023-05-16T18:46:58.678Z,15.30
2023-05-16T18:49:26.682Z,9.60
2023-05-16T18:51:55.618Z,8.80
2023-05-16T18:54:24.454Z,8.40
2023-05-16T18:56:52.441Z,13.00
2023-05-16T18:59:21.060Z,10.10
2023-05-16T19:01:48.781Z,11.10
2023-05-16T19:04:16.554Z,14.80
2023-05-16T19:06:44.288Z,40.60
2023-05-16T19:09:12.228Z,32.90
2023-05-16T19:11:39.861Z,15.30
2023-05-16T19:14:08.297Z,17.60
2023-05-16T19:16:35.937Z,17.30
2023-05-16T19:19:04.421Z,10.40
2023-05-16T19:21:32.228Z,10.40
2023-05-16T19:23:59.944Z,12.00
2023-05-16T19:26:28.551Z,15.00
2023-05-16T19:28:56.462Z,26.50
2023-05-16T19:31:24.143Z,22.80
2023-05-16T19:33:51.785Z,21.50
2023-05-16T19:36:19.454Z,14.30
2023-05-16T19:38:47.090Z,14.50
2023-05-16T19:41:14.746Z,14.70
2023-05-16T19:43:43.523Z,15.40
2023-05-16T19:46:11.214Z,15.30
2023-05-16T19:48:38.899Z,16.20
2023-05-16T19:51:06.978Z,17.00
2023-05-16T19:53:34.917Z,18.10
2023-05-16T19:56:02.603Z,17.50
2023-05-16T19:58:30.406Z,16.30
2023-05-16T20:01:01.029Z,17.70
2023-05-16T20:03:28.769Z,16.60
2023-05-16T20:05:56.567Z,16.60
2023-05-16T20:08:24.194Z,18.00
2023-05-16T20:10:51.814Z,19.40
2023-05-16T20:13:20.916Z,22.90
2023-05-16T20:15:48.546Z,24.50
2023-05-16T20:18:16.248Z,23.40
2023-05-16T20:20:43.923Z,21.70
2023-05-16T20:23:11.940Z,21.90
2023-05-16T20:25:39.661Z,23.20
2023-05-16T20:28:07.286Z,24.60
2023-05-16T20:30:34.967Z,24.20
2023-05-16T20:33:02.759Z,24.90
2023-05-16T20:35:30.626Z,26.40
2023-05-16T20:37:58.333Z,28.90
2023-05-16T20:40:25.967Z,28.30
2023-05-16T20:42:53.631Z,30.10
2023-05-16T20:45:22.266Z,30.20
2023-05-16T20:47:51.266Z,32.30
2023-05-16T20:50:19.126Z,33.10
2023-05-16T20:52:46.788Z,34.00
2023-05-16T20:55:14.428Z,34.90
2023-05-16T20:57:43.727Z,35.90
2023-05-16T21:00:12.203Z,36.10
2023-05-16T21:02:40.346Z,37.80
2023-05-16T21:05:23.030Z,37.60
2023-05-16T21:07:53.656Z,36.60
2023-05-16T21:10:21.255Z,38.10
2023-05-16T21:12:50.154Z,36.20
2023-05-16T21:15:18.412Z,36.70
2023-05-16T21:17:46.779Z,36.30
2023-05-16T21:20:14.449Z,36.30
2023-05-16T21:22:42.548Z,37.30
2023-05-16T21:25:10.332Z,36.80
2023-05-16T21:27:38.007Z,32.30
2023-05-16T21:30:06.671Z,31.40
2023-05-16T21:32:34.440Z,32.60
2023-05-16T21:35:04.244Z,31.70
2023-05-16T21:37:32.145Z,29.70
2023-05-16T21:39:59.816Z,29.70
2023-05-16T21:42:27.477Z,31.00
2023-05-16T21:44:55.125Z,30.20
2023-05-16T21:47:23.196Z,30.10
2023-05-16T21:49:50.895Z,31.50
2023-05-16T21:52:18.607Z,32.10
2023-05-16T21:54:51.508Z,33.30
2023-05-16T21:57:19.697Z,33.20
2023-05-16T21:59:50.370Z,35.60
2023-05-16T22:02:22.770Z,35.00
2023-05-16T22:04:53.997Z,36.20
2023-05-16T22:07:23.952Z,35.50
2023-05-16T22:09:53.622Z,36.60
2023-05-16T22:12:22.140Z,37.90
2023-05-16T22:14:50.339Z,36.20
2023-05-16T22:17:19.490Z,35.60
2023-05-16T22:19:47.519Z,36.40
2023-05-16T22:22:15.548Z,37.00
2023-05-16T22:24:43.251Z,37.90
2023-05-16T22:27:10.881Z,38.90
2023-05-16T22:29:38.571Z,39.40
2023-05-16T22:32:07.564Z,40.20
2023-05-16T22:34:36.414Z,40.40
2023-05-16T22:37:04.124Z,40.80
2023-05-16T22:39:31.772Z,40.60
2023-05-16T22:42:01.051Z,41.30
2023-05-16T22:44:28.821Z,41.50
2023-05-16T22:46:56.566Z,43.10
2023-05-16T22:49:24.179Z,42.50
2023-05-16T22:51:51.875Z,43.80
2023-05-16T22:54:19.559Z,44.90
2023-05-16T22:56:47.170Z,45.20
2023-05-16T22:59:15.084Z,46.10
2023-05-16T23:01:42.804Z,48.10
2023-05-16T23:04:10.821Z,49.20
2023-05-16T23:06:38.643Z,48.70
2023-05-16T23:09:06.295Z,48.50
2023-05-16T23:11:33.950Z,49.60
2023-05-16T23:14:01.670Z,49.40
2023-05-16T23:16:29.311Z,49.70
2023-05-16T23:18:57.438Z,48.90
2023-05-16T23:21:25.312Z,48.00
2023-05-16T23:23:52.920Z,47.90
2023-05-16T23:26:20.618Z,49.40
2023-05-16T23:28:48.226Z,47.80
2023-05-16T23:31:15.968Z,46.70
2023-05-16T23:33:43.616Z,47.80
2023-05-16T23:36:11.254Z,46.20
2023-05-16T23:38:38.867Z,47.20
2023-05-16T23:41:06.520Z,46.30
2023-05-16T23:43:34.174Z,47.80
2023-05-16T23:46:01.808Z,46.70
2023-05-16T23:48:29.513Z,46.40
2023-05-16T23:50:57.195Z,47.20
2023-05-16T23:53:29.020Z,47.20
2023-05-16T23:55:56.659Z,46.30
2023-05-16T23:58:24.588Z,46.70
